Tiempo atmosférico en la estación meteorológica de Aroche, Huelva (260 m.)



Fecha
DESCASC
Temp. máxima en grados centígrados (hora)
DESCASC
Temp. mínima en grados centígrados (hora)
DESCASC
Temp. media en grados centígrados
DESCASC
Racha de viento máxima en m/sg (hora)
DESCASC
Velocidad máxima media en intervalos de 10 minutos(hora)
DESCASC
Precipitaciones diarias en mm
DESCASC
Precipitaciones de 00:00 a 06:00 en mm
DESCASC
Precipitaciones de 06:00 a 12:00 en mm
DESCASC
Precipitaciones de 12:00 a 18:00 en mm
DESCASC
Precipitaciones de 18:00 a 24:00 en mm
DESCASC
18-02-2018 18.7 (14:20) 2.5 (07:20) 10.6 7.78 (20:30) 4.72 (20:10) 0 0 0 0 0
17-02-2018 17.6 (14:10) 3.1 (02:10) 10.4 6.39 (17:10) 4.17 (16:30) 0 0 0 0 0
16-02-2018 20.4 (15:10) 3.7 (03:40) 12 6.94 (15:00) 3.89 (17:00) 0 0 0 0 0
15-02-2018 18.7 (15:10) 0.7 (00:00) 9.7 7.5 (16:00) 3.33 (15:50) 0 0 0 0 0
14-02-2018 14.3 (13:50) -0.5 (-00:0) 6.9 7.78 (13:50) 4.17 (14:00) 0 0 0 0 0
13-02-2018 13 (17:20) -3 (-00:0) 5 8.06 (14:10) 4.72 (14:10) 0 0 0 0 0
12-02-2018 13.6 (16:10) 2.8 (00:00) 8.2 9.72 (14:10) 5.28 (14:30) 2.4 0 2.4 0 0
11-02-2018 13.5 (13:50) -1.9 (-00:0) 5.8 9.17 (19:30) 3.89 (12:40) 0 0 0 0 0
10-02-2018 13.5 (16:50) 1.3 (00:00) 7.4 10 (14:30) 4.72 (14:20) 0 0 0 0 0
09-02-2018 11.1 (16:00) -4.6 (-00:0) 3.3 5.28 (17:10) 3.33 (16:40) 0 0 0 0 0
08-02-2018 10.5 (16:30) -5.4 (-00:0) 2.5 12.22 (13:20) 5.83 (12:50) 0 0 0 0 0
07-02-2018 10.6 (15:30) -4.9 (-00:0) 2.9 11.67 (15:20) 6.39 (11:30) 0 0 0 0 0
06-02-2018 10.4 (16:10) -1.3 (-00:0) 4.5 8.89 (17:30) 4.72 (16:50) 0 0 0 0 0
05-02-2018 10.4 (16:00) -4 (-00:0) 3.2 7.78 (15:00) 4.44 (15:00) 0 0 0 0 0
04-02-2018 10.3 (17:00) 1.8 (00:00) 6.1 9.17 (03:10) 5.56 (14:50) 0.4 0 0.4 0 0
03-02-2018 11.6 (15:40) -4.3 (-00:0) 3.7 9.17 (14:10) 5 (14:10) 0 0 0 0 0
02-02-2018 11.2 (16:00) 0.9 (00:00) 6 11.11 (01:40) 6.67 (01:50) 0 0 0 0 0
01-02-2018 12.7 (17:00) -0.2 (00:00) 6.2 14.17 (21:40) 7.5 (21:40) 0 0 0 0 0
31-01-2018 17.6 (16:50) 6.1 (00:00) 11.9 5.56 (14:50) 3.33 (14:50) 0 0 0 0 0
30-01-2018 18.7 (13:00) 3.1 (00:00) 10.9 8.33 (15:00) 5.28 (15:00) 0 0 0 0 0
29-01-2018 18.7 (16:10) 5 (00:00) 11.9 11.67 (16:30) 7.5 (16:30) 0 0 0 0 0
28-01-2018 14.1 (15:30) 1.4 (00:00) 7.8 17.78 (10:30) 10.83 (13:10) 0 0 0 0 0
27-01-2018 13.2 (16:30) -2.5 (-00:0) 5.3 10 (16:00) 5.28 (16:00) 0 0 0 0 0
26-01-2018 12 (15:30) 1.9 (00:00) 6.9 11.39 (13:20) 7.22 (14:00) 0 0 0 0 0
25-01-2018 10.3 (17:00) 6.1 (00:00) 8.2 12.5 (19:50) 6.67 (19:40) 3.6 0 0.2 3.2 0.2
24-01-2018 16.9 (14:20) -0.5 (-00:0) 8.2 5.56 (16:50) 3.89 (17:00) 0.2 0.2 0 0 0
23-01-2018 15 (14:50) 0 (00:00) 7.5 5.28 (15:30) 3.61 (15:00) 0.2 0 0.2 0 0
22-01-2018 15.2 (15:50) 2.4 (00:00) 8.8 5.28 (16:40) 3.61 (16:30) 0 0 0 0 0

Gráficas

Temp. máximas Temp. mínimas Temp. medias Precipitaciones Rachas de viento máximas Velocidades máximas media en intervalos de 10 minutos

Datos horarios

Fecha y hora oficial Temperatura (ºC) Velocidad del viento (km/h) Dirección del viento Racha (km/h) Dirección de racha Precipitación (mm) Presión (hPa) Tendencia (hPa) Humedad (%)
2018-02-20 23:00:00 6.9 6 Sudeste 9 Este 0 -- -- 79
2018-02-20 22:00:00 9.4 5 Este 10 Nordeste 0 -- -- 69
2018-02-20 21:00:00 10.9 4 Nordeste 7 Nordeste 0 -- -- 62
2018-02-20 20:00:00 14.8 4 Nordeste 17 Norte 0 -- -- 48
2018-02-20 19:00:00 17.3 7 Norte 18 Noroeste 0 -- -- 44
2018-02-20 18:00:00 18.8 8 Norte 18 Norte 0 -- -- 44
2018-02-20 17:00:00 19.1 9 Norte 21 Norte 0 -- -- 39
2018-02-20 16:00:00 19.4 10 Nordeste 24 Este 0 -- -- 38
2018-02-20 15:00:00 19.1 10 Este 24 Nordeste 0 -- -- 39
2018-02-20 14:00:00 18.4 12 Norte 26 Nordeste 0 -- -- 43
2018-02-20 13:00:00 18.1 14 Nordeste 28 Este 0 -- -- 41
2018-02-20 12:00:00 17.4 6 Nordeste 13 Norte 0 -- -- 47
2018-02-20 11:00:00 13.8 4 Sudoeste 6 Sudoeste 0 -- -- 64
2018-02-20 10:00:00 8 0 Calma 4 Sudeste 0 -- -- 90
2018-02-20 09:00:00 2.5 2 Este 7 Sudeste 0 -- -- 97
2018-02-20 08:00:00 1.1 2 Sudeste 5 Sudeste 0 -- -- 94
2018-02-20 07:00:00 1.4 4 Sudeste 6 Sudeste 0 -- -- 94
2018-02-20 06:00:00 1.7 2 Este 6 Sudeste 0 -- -- 93
2018-02-20 05:00:00 2.2 3 Sudeste 6 Sudeste 0 -- -- 93
2018-02-20 04:00:00 2.7 2 Este 8 Sudeste 0 -- -- 88
2018-02-20 03:00:00 3.3 0 Calma 6 Sudeste 0 -- -- 88
2018-02-20 02:00:00 3.5 0 Calma 5 Este 0 -- -- 89
2018-02-20 01:00:00 5 3 Este 8 Este 0 -- -- 81
2018-02-20 00:00:00 5.9 4 Este 6 Este 0 -- -- 80
2018-02-19 23:00:00 7 2 Nordeste 6 Nordeste 0 -- -- 74
2018-02-19 22:00:00 8.9 0 Calma 19 Nordeste 0 -- -- 67
2018-02-19 21:00:00 10.7 2 Sudoeste 16 Norte 0 -- -- 60
2018-02-19 20:00:00 13 10 Norte 20 Norte 0 -- -- 52
2018-02-19 19:00:00 15.7 11 Nordeste 23 Norte 0 -- -- 44
2018-02-19 18:00:00 16.6 13 Nordeste 22 Este 0 -- -- 41
2018-02-19 17:00:00 17.1 12 Norte 23 Nordeste 0 -- -- 43
2018-02-19 16:00:00 17.5 9 Norte 29 Nordeste 0 -- -- 44
2018-02-19 15:00:00 18 12 Nordeste 26 Este 0 -- -- 40
2018-02-19 14:00:00 17 9 Nordeste 28 Este 0 -- -- 42
2018-02-19 13:00:00 16.3 13 Norte 24 Nordeste 0 -- -- 43
2018-02-19 12:00:00 15.4 17 Nordeste 29 Norte 0 -- -- 44
2018-02-19 11:00:00 11.1 4 Sur 6 Sudoeste 0 -- -- 63
2018-02-19 10:00:00 8 3 Nordeste 6 Norte 0 -- -- 72
2018-02-19 09:00:00 6.1 0 Calma 6 Nordeste 0 -- -- 73
2018-02-19 08:00:00 4.1 2 Este 6 Sudeste 0 -- -- 79
2018-02-19 07:00:00 2.6 3 Sudeste 6 Sudeste 0 -- -- 83
2018-02-19 06:00:00 2.2 2 Este 5 Nordeste 0 -- -- 84
2018-02-19 05:00:00 2.3 2 Nordeste 8 Sudeste 0 -- -- 87
2018-02-19 04:00:00 2.7 5 Sudeste 7 Sudeste 0 -- -- 81
2018-02-19 03:00:00 4.5 0 Calma 5 Este 0 -- -- 77
2018-02-19 02:00:00 6.3 2 Este 6 Nordeste 0 -- -- 72
2018-02-19 01:00:00 8 3 Nordeste 9 Nordeste 0 -- -- 63
2018-02-19 00:00:00 8.7 2 Nordeste 7 Sur 0 -- -- 63
2018-02-18 23:00:00 10.6 2 Sur 17 Nordeste 0 -- -- 57
2018-02-18 22:00:00 13 4 Nordeste 26 Norte 0 -- -- 48
2018-02-18 21:00:00 14.2 14 Nordeste 28 Nordeste 0 -- -- 45
2018-02-18 20:00:00 15 14 Nordeste 25 Nordeste 0 -- -- 46
2018-02-18 19:00:00 16 4 Nordeste 10 Nordeste 0 -- -- 53
2018-02-18 18:00:00 17.1 8 Nordeste 18 Este 0 -- -- 49
2018-02-18 17:00:00 17.8 5 Sudeste 14 Este 0 -- -- 49
2018-02-18 16:00:00 17.1 6 Este 12 Este 0 -- -- 52
2018-02-18 15:00:00 17.4 8 Nordeste 15 Nordeste 0 -- -- 53
2018-02-18 14:00:00 17.8 4 Sudoeste 13 Norte 0 -- -- 56
2018-02-18 13:00:00 17.9 4 Sudoeste 11 Este 0 -- -- 55
2018-02-18 12:00:00 16.2 3 Sudoeste 6 Sur 0 -- -- 63
2018-02-18 11:00:00 12.5 0 Calma 3 Sur 0 -- -- 83
2018-02-18 10:00:00 7 0 Calma 5 Sudeste 0 -- -- 100
2018-02-18 09:00:00 3.3 3 Este 4 Nordeste 0 -- -- 100
2018-02-18 08:00:00 2.8 0 Calma 4 Sudeste 0 -- -- 99
2018-02-18 07:00:00 2.7 0 Calma 3 Sudoeste 0 -- -- 97
2018-02-18 06:00:00 3.8 2 Sur 5 Sur 0 -- -- 97
2018-02-18 05:00:00 5.2 4 Sudeste 7 Este 0 -- -- 99
2018-02-18 04:00:00 4.3 0 Calma 3 Este 0 -- -- 98
2018-02-18 03:00:00 4.6 0 Calma 6 Nordeste 0 -- -- 97
2018-02-18 02:00:00 6.1 2 Este 6 Sudeste 0 -- -- 96
2018-02-18 01:00:00 7.1 3 Este 4 Este 0 -- -- 95
2018-02-18 00:00:00 7.7 0 Calma 4 Este 0 -- -- 94
2018-02-17 23:00:00 8.5 3 Este 7 Sur 0 -- -- 92
2018-02-17 22:00:00 10 2 Este 5 Sur 0 -- -- 89
2018-02-17 21:00:00 11.8 0 Calma 5 Oeste 0 -- -- 83
2018-02-17 20:00:00 13.4 4 Noroeste 11 Noroeste 0 -- -- 77
2018-02-17 19:00:00 14.8 8 Norte 22 Norte 0 -- -- 71
2018-02-17 18:00:00 16.1 8 Norte 23 Norte 0 -- -- 65
2018-02-17 17:00:00 15.7 15 Norte 22 Norte 0 -- -- 53
2018-02-17 16:00:00 16.4 14 Noroeste 22 Noroeste 0 -- -- 59
2018-02-17 15:00:00 16.2 14 Noroeste 22 Noroeste 0 -- -- 63
2018-02-17 14:00:00 17.3 10 Oeste 17 Oeste 0 -- -- 64
2018-02-17 13:00:00 16.5 4 Oeste 10 Sudoeste 0 -- -- 65
2018-02-17 12:00:00 13 2 Oeste 6 Noroeste 0 -- -- 83
2018-02-17 11:00:00 8.5 3 Noroeste 6 Noroeste 0 -- -- 100
2018-02-17 10:00:00 7.2 0 Calma 3 Sur 0 -- -- 100
2018-02-17 09:00:00 6.6 0 Calma 5 Sudeste 0 -- -- 99
2018-02-17 08:00:00 6.9 2 Este 4 Sudeste 0 -- -- 98
2018-02-17 07:00:00 7.2 2 Este 4 Sudeste 0 -- -- 97
2018-02-17 06:00:00 6.8 0 Calma 3 Sur 0 -- -- 97
2018-02-17 05:00:00 6.3 0 Calma 4 Este 0 -- -- 98
2018-02-17 04:00:00 5.5 0 Calma 2 Este 0 -- -- 98
2018-02-17 03:00:00 4.2 0 Calma 4 Este 0 -- -- 98
2018-02-17 02:00:00 3.3 2 Este 5 Este 0 -- -- 95
2018-02-17 01:00:00 4.4 0 Calma 3 Nordeste 0 -- -- 94
2018-02-17 00:00:00 5 0 Calma 4 Nordeste 0 -- -- 92
2018-02-16 23:00:00 6.2 0 Calma 5 Nordeste 0 -- -- 90
2018-02-16 22:00:00 7.4 0 Calma 13 Oeste 0 -- -- 83
2018-02-16 21:00:00 9.7 4 Este 7 Sudeste 0 -- -- 73
2018-02-16 20:00:00 12.5 2 Nordeste 8 Oeste 0 -- -- 65
2018-02-16 19:00:00 17.1 7 Oeste 19 Oeste 0 -- -- 50
2018-02-16 18:00:00 19.2 10 Oeste 22 Oeste 0 -- -- 42
2018-02-16 17:00:00 19.8 14 Oeste 21 Oeste 0 -- -- 44
2018-02-16 16:00:00 20 8 Noroeste 18 Noroeste 0 -- -- 53
2018-02-16 15:00:00 20.2 6 Sudoeste 25 Oeste 0 -- -- 52
2018-02-16 14:00:00 19.2 6 Sudoeste 15 Noroeste 0 -- -- 55
2018-02-16 13:00:00 18 6 Noroeste 14 Oeste 0 -- -- 54
2018-02-16 12:00:00 17.2 4 Sur 7 Sur 0 -- -- 61
2018-02-16 11:00:00 12.3 0 Calma 3 Noroeste 0 -- -- 90
2018-02-16 10:00:00 8.1 2 Este 5 Este 0 -- -- 100
2018-02-16 09:00:00 4.3 3 Este 6 Sudeste 0 -- -- 100
2018-02-16 08:00:00 4.3 5 Sudeste 7 Sudeste 0 -- -- 99
2018-02-16 07:00:00 4.1 3 Sudeste 6 Este 0 -- -- 99
2018-02-16 06:00:00 4.1 4 Este 6 Sudeste 0 -- -- 99
2018-02-16 05:00:00 4.2 2 Este 6 Este 0 -- -- 98
2018-02-16 04:00:00 4.6 4 Sudeste 7 Este 0 -- -- 99
2018-02-16 03:00:00 4.2 3 Sudeste 6 Sudeste 0 -- -- 97
2018-02-16 02:00:00 4.6 3 Este 8 Sudeste 0 -- -- 97
2018-02-16 01:00:00 5.1 3 Sudeste 8 Sudeste 0 -- -- 97
2018-02-16 00:00:00 5.7 4 Este 6 Este 0 -- -- 96
2018-02-15 23:00:00 6.3 2 Sur 5 Nordeste 0 -- -- 92
2018-02-15 22:00:00 7.8 0 Calma 7 Sudeste 0 -- -- 86
2018-02-15 21:00:00 10.7 3 Este 6 Nordeste 0 -- -- 80
2018-02-15 20:00:00 12.6 0 Calma 12 Norte 0 -- -- 73
2018-02-15 19:00:00 16.1 6 Norte 15 Norte 0 -- -- 63
2018-02-15 18:00:00 17.6 7 Norte 17 Noroeste 0 -- -- 56
2018-02-15 17:00:00 18.3 3 Noroeste 19 Oeste 0 -- -- 55
2018-02-15 16:00:00 18.6 12 Oeste 27 Oeste 0 -- -- 57
2018-02-15 15:00:00 18.6 7 Oeste 15 Sudoeste 0 -- -- 57
2018-02-15 14:00:00 17.3 9 Oeste 15 Oeste 0 -- -- 56
2018-02-15 13:00:00 16.2 9 Noroeste 15 Noroeste 0 -- -- 63
2018-02-15 12:00:00 15.4 2 Sudoeste 6 Sudoeste 0 -- -- 65
2018-02-15 11:00:00 12.8 2 Este 4 Sur 0 -- -- 79
2018-02-15 10:00:00 8 0 Calma 5 Sudeste 0 -- -- 100
2018-02-15 09:00:00 2.5 3 Sudeste 5 Sudeste 0 -- -- 100
2018-02-15 08:00:00 0.9 0 Calma 4 Sur 0 -- -- 99
2018-02-15 07:00:00 1 0 Calma 5 Este 0 -- -- 97
2018-02-15 06:00:00 1.2 3 Este 6 Este 0 -- -- 99
2018-02-15 05:00:00 1.3 4 Este 5 Este 0 -- -- 99
2018-02-15 04:00:00 1.7 3 Sur 6 Sudeste 0 -- -- 98
2018-02-15 03:00:00 2.2 0 Calma 5 Sudeste 0 -- -- 98
2018-02-15 02:00:00 2.6 3 Sudeste 5 Sur 0 -- -- 96
2018-02-15 01:00:00 2.9 4 Sudeste 5 Sudeste 0 -- -- 97
2018-02-15 00:00:00 3.6 0 Calma 4 Sudeste 0 -- -- 95
2018-02-14 23:00:00 5.1 4 Este 10 Sudeste 0 -- -- 94
2018-02-14 22:00:00 5.9 2 Sudeste 6 Este 0 -- -- 91
2018-02-14 21:00:00 7.6 4 Este 7 Este 0 -- -- 89
2018-02-14 20:00:00 9.4 4 Norte 6 Norte 0 -- -- 82
2018-02-14 19:00:00 12.4 4 Oeste 12 Oeste 0 -- -- 71
2018-02-14 18:00:00 13.4 7 Oeste 21 Oeste 0 -- -- 71
2018-02-14 17:00:00 13.6 9 Oeste 18 Oeste 0 -- -- 67
2018-02-14 16:00:00 13.3 11 Oeste 19 Oeste 0 -- -- 68
2018-02-14 15:00:00 13 12 Oeste 25 Noroeste 0 -- -- 67
2018-02-14 14:00:00 14.3 15 Oeste 28 Oeste 0 -- -- 62
2018-02-14 13:00:00 13 10 Noroeste 18 Oeste 0 -- -- 72
2018-02-14 12:00:00 11.2 0 Calma 4 Sudoeste 0 -- -- 76
2018-02-14 11:00:00 7.2 0 Calma 4 Este 0 -- -- 98
2018-02-14 10:00:00 4.8 2 Sudeste 6 Sudeste 0 -- -- 100
2018-02-14 09:00:00 3.1 3 Este 5 Este 0 -- -- 100
2018-02-14 08:00:00 1.7 3 Este 6 Sudeste 0 -- -- 100
2018-02-14 07:00:00 0.1 2 Sur 5 Sudeste 0 -- -- 99
2018-02-14 06:00:00 -0.3 3 Sudeste 4 Sudeste 0 -- -- 98
2018-02-14 05:00:00 0 3 Sudeste 6 Este 0 -- -- 98
2018-02-14 04:00:00 -0.3 4 Este 6 Sur 0 -- -- 99
2018-02-14 03:00:00 -0.5 0 Calma 5 Sudeste 0 -- -- 96
2018-02-14 02:00:00 0.2 2 Este 6 Este 0 -- -- 94
2018-02-14 01:00:00 1 3 Este 5 Sudeste 0 -- -- 94
2018-02-14 00:00:00 1.7 2 Este 5 Sudeste 0 -- -- 92
2018-02-13 23:00:00 2.5 0 Calma 4 Sudeste 0 -- -- 91
2018-02-13 22:00:00 3.2 3 Sur 7 Este 0 -- -- 86
2018-02-13 21:00:00 5 4 Sudeste 7 Sudeste 0 -- -- 82
2018-02-13 20:00:00 7.8 4 Nordeste 8 Noroeste 0 -- -- 71
2018-02-13 19:00:00 10.4 6 Oeste 21 Oeste 0 -- -- 58
2018-02-13 18:00:00 12 12 Noroeste 24 Oeste 0 -- -- 54
2018-02-13 17:00:00 12.9 9 Oeste 24 Oeste 0 -- -- 56
2018-02-13 16:00:00 12 11 Oeste 24 Oeste 0 -- -- 57
2018-02-13 15:00:00 11.9 10 Noroeste 29 Oeste 0 -- -- 58
2018-02-13 14:00:00 11.5 14 Oeste 26 Oeste 0 -- -- 56
2018-02-13 13:00:00 10.1 9 Oeste 18 Sudoeste 0 -- -- 61
2018-02-13 12:00:00 9.1 6 Noroeste 15 Noroeste 0 -- -- 70
2018-02-13 11:00:00 6.1 0 Calma 3 Norte 0 -- -- 86
2018-02-13 10:00:00 1.4 0 Calma 3 Sur 0 -- -- 97
2018-02-13 09:00:00 -2.5 2 Sudeste 4 Sudeste 0 -- -- 98
2018-02-13 08:00:00 -2.8 0 Calma 5 Este 0 -- -- 97
2018-02-13 07:00:00 -2.6 2 Este 4 Sudeste 0 -- -- 96
2018-02-13 06:00:00 -2.3 0 Calma 3 Nordeste 0 -- -- 96
2018-02-13 05:00:00 -1.9 0 Calma 5 Este 0 -- -- 95
2018-02-13 04:00:00 -1.1 4 Este 5 Este 0 -- -- 95
2018-02-13 03:00:00 -0.6 0 Calma 2 Sur 0 -- -- 92
2018-02-13 02:00:00 0.6 3 Este 5 Nordeste 0 -- -- 91
2018-02-13 01:00:00 1.6 2 Este 8 Sudeste 0 -- -- 85
2018-02-13 00:00:00 2.8 4 Este 10 Este 0 -- -- 82
2018-02-12 23:00:00 4.4 2 Este 8 Sudeste 0 -- -- 72
2018-02-12 22:00:00 7.3 3 Sur 17 Norte 0 -- -- 58
2018-02-12 21:00:00 9.5 11 Norte 24 Noroeste 0 -- -- 48
2018-02-12 20:00:00 10.1 10 Noroeste 28 Noroeste 0 -- -- 49
2018-02-12 19:00:00 11.8 9 Noroeste 24 Noroeste 0 -- -- 43
2018-02-12 18:00:00 13.1 13 Noroeste 33 Noroeste 0 -- -- 37
2018-02-12 17:00:00 13.6 14 Noroeste 33 Noroeste 0 -- -- 42
2018-02-12 16:00:00 13.5 15 Noroeste 32 Noroeste 0 -- -- 47
2018-02-12 15:00:00 13.1 16 Noroeste 35 Norte 0 -- -- 56
2018-02-12 14:00:00 12.8 15 Noroeste 33 Norte 0 -- -- 58
2018-02-12 13:00:00 12.3 12 Noroeste 27 Oeste 0 -- -- 58
2018-02-12 12:00:00 11.5 14 Noroeste 33 Noroeste 0 -- -- 67
2018-02-12 11:00:00 10.5 5 Norte 14 Noroeste 0 -- -- 85
2018-02-12 10:00:00 9.7 6 Noroeste 31 Norte 0.8 -- -- 89
2018-02-12 09:00:00 10 6 Oeste 11 Sudoeste 0.8 -- -- 99
2018-02-12 08:00:00 9.9 5 Oeste 9 Oeste 0.8 -- -- 98
2018-02-12 07:00:00 10 4 Oeste 11 Oeste 0 -- -- 96
2018-02-12 06:00:00 10 6 Oeste 11 Oeste 0 -- -- 95
2018-02-12 05:00:00 10.3 6 Oeste 16 Oeste 0 -- -- 93
2018-02-12 04:00:00 10.6 12 Oeste 22 Oeste 0 -- -- 91
2018-02-12 03:00:00 10.9 10 Oeste 21 Noroeste 0 -- -- 90
2018-02-12 02:00:00 10.9 6 Oeste 15 Noroeste 0 -- -- 94
2018-02-12 01:00:00 11.1 6 Oeste 17 Oeste 0 -- -- 95
2018-02-12 00:00:00 11.7 9 Oeste 18 Oeste 0 -- -- 95
2018-02-11 23:00:00 11.9 9 Oeste 17 Noroeste 0 -- -- 95
2018-02-11 22:00:00 12 8 Oeste 15 Oeste 0 -- -- 95
2018-02-11 21:00:00 12.6 8 Oeste 24 Oeste 0 -- -- 88
2018-02-11 20:00:00 13.1 12 Oeste 33 Oeste 0 -- -- 84
2018-02-11 19:00:00 13.3 9 Oeste 22 Oeste 0 -- -- 84
2018-02-11 18:00:00 13.3 7 Noroeste 14 Noroeste 0 -- -- 83
2018-02-11 17:00:00 12.9 2 Noroeste 17 Oeste 0 -- -- 85
2018-02-11 16:00:00 12.9 7 Noroeste 18 Oeste 0 -- -- 83
2018-02-11 15:00:00 13.4 9 Norte 22 Norte 0 -- -- 79
2018-02-11 14:00:00 13.3 14 Norte 30 Noroeste 0 -- -- 78
2018-02-11 13:00:00 13.2 9 Noroeste 22 Noroeste 0 -- -- 74
2018-02-11 12:00:00 11.8 13 Noroeste 23 Oeste 0 -- -- 76
2018-02-11 11:00:00 8.4 5 Noroeste 9 Oeste 0 -- -- 80
2018-02-11 10:00:00 3.1 2 Oeste 8 Nordeste 0 -- -- 95
2018-02-11 09:00:00 -1.3 0 Calma 6 Sudeste 0 -- -- 98
2018-02-11 08:00:00 -1.6 0 Calma 4 Este 0 -- -- 96
2018-02-11 07:00:00 -1.1 2 Nordeste 5 Sudeste 0 -- -- 95
2018-02-11 06:00:00 -0.6 3 Sudeste 6 Noroeste 0 -- -- 95
2018-02-11 05:00:00 -0.3 0 Calma 8 Nordeste 0 -- -- 94
2018-02-11 04:00:00 0.2 0 Calma 6 Nordeste 0 -- -- 91
2018-02-11 03:00:00 1.5 0 Calma 10 Norte 0 -- -- 88
2018-02-11 02:00:00 1.8 0 Calma 9 Noroeste 0 -- -- 92
2018-02-11 01:00:00 1.6 0 Calma 4 Este 0 -- -- 86
2018-02-11 00:00:00 2.9 0 Calma 4 Nordeste 0 -- -- 80
2018-02-10 23:00:00 4.6 0 Calma 5 Oeste 0 -- -- 73
2018-02-10 22:00:00 7.5 3 Sudoeste 14 Noroeste 0 -- -- 63
2018-02-10 21:00:00 9.2 4 Oeste 13 Noroeste 0 -- -- 55
2018-02-10 20:00:00 9.9 8 Noroeste 17 Norte 0 -- -- 54
2018-02-10 19:00:00 11.8 5 Norte 20 Norte 0 -- -- 50
2018-02-10 18:00:00 13 10 Norte 25 Norte 0 -- -- 48
2018-02-10 17:00:00 13.3 12 Norte 31 Noroeste 0 -- -- 43
2018-02-10 16:00:00 13.3 14 Norte 28 Norte 0 -- -- 39
2018-02-10 15:00:00 13.2 12 Norte 36 Nordeste 0 -- -- 45
2018-02-10 14:00:00 12.4 9 Norte 25 Norte 0 -- -- 56
2018-02-10 13:00:00 11.8 9 Norte 21 Noroeste 0 -- -- 58
2018-02-10 12:00:00 9.7 4 Nordeste 15 Nordeste 0 -- -- 70
2018-02-10 11:00:00 8.1 4 Norte 10 Noroeste 0 -- -- 83
2018-02-10 10:00:00 5.6 2 Oeste 8 Sudeste 0 -- -- 95
2018-02-10 09:00:00 3.5 0 Calma 13 Sudeste 0 -- -- 97
2018-02-10 08:00:00 4.6 2 Norte 12 Este 0 -- -- 89
2018-02-10 07:00:00 5.6 2 Sur 18 Nordeste 0 -- -- 92
2018-02-10 06:00:00 6.5 11 Norte 22 Nordeste 0 -- -- 91
2018-02-10 05:00:00 6.6 0 Calma 12 Este 0 -- -- 94
2018-02-10 04:00:00 6.7 2 Sur 13 Norte 0 -- -- 95
2018-02-10 03:00:00 6.6 5 Nordeste 12 Norte 0 -- -- 98
2018-02-10 02:00:00 4.9 2 Sur 8 Sudeste 0 -- -- 100
2018-02-10 01:00:00 1.4 2 Sur 5 Sudeste 0 -- -- 97
2018-02-10 00:00:00 1.9 2 Sudeste 4 Este 0 -- -- 95
2018-02-09 23:00:00 2.9 2 Sudeste 4 Sudeste 0 -- -- 95
2018-02-09 22:00:00 3.8 0 Calma 4 Sudoeste 0 -- -- 95
2018-02-09 21:00:00 4.5 0 Calma 5 Norte 0 -- -- 89
2018-02-09 20:00:00 7.3 3 Noroeste 11 Noroeste 0 -- -- 84
2018-02-09 19:00:00 8 7 Noroeste 14 Noroeste 0 -- -- 84
2018-02-09 18:00:00 8.4 9 Norte 19 Norte 0 -- -- 82
2018-02-09 17:00:00 9.3 8 Oeste 18 Oeste 0 -- -- 79
2018-02-09 16:00:00 11.1 8 Oeste 14 Oeste 0 -- -- 68
2018-02-09 15:00:00 9.2 5 Oeste 11 Oeste 0 -- -- 72
2018-02-09 14:00:00 8.7 0 Calma 6 Sudeste 0 -- -- 64
2018-02-09 13:00:00 7.7 3 Nordeste 6 Noroeste 0 -- -- 62
2018-02-09 12:00:00 5.6 2 Sudoeste 3 Sudoeste 0 -- -- 69
2018-02-09 11:00:00 3.4 0 Calma 3 Sur 0 -- -- 78
2018-02-09 10:00:00 0.6 0 Calma 3 Sudeste 0 -- -- 91
2018-02-09 09:00:00 -2 0 Calma 4 Sudeste 0 -- -- 93
2018-02-09 08:00:00 -3.3 2 Sudeste 4 Sudeste 0 -- -- 93
2018-02-09 07:00:00 -4.6 0 Calma 3 Este 0 -- -- 92
2018-02-09 06:00:00 -4.2 0 Calma 2 Sur 0 -- -- 90
2018-02-09 05:00:00 -3 0 Calma 2 Sudeste 0 -- -- 87
2018-02-09 04:00:00 -3.5 2 Este 2 Este 0 -- -- 92
2018-02-09 03:00:00 -4.1 0 Calma 5 Sudeste 0 -- -- 89
2018-02-09 02:00:00 -3.7 0 Calma 6 Este 0 -- -- 85
2018-02-09 01:00:00 -3.5 0 Calma 3 Sur 0 -- -- 86
2018-02-09 00:00:00 -2.3 0 Calma 4 Sur 0 -- -- 80
2018-02-08 23:00:00 -0.8 4 Este 9 Nordeste 0 -- -- 71
2018-02-08 22:00:00 2 4 Nordeste 9 Norte 0 -- -- 61
2018-02-08 21:00:00 3.8 6 Nordeste 10 Nordeste 0 -- -- 53
2018-02-08 20:00:00 5.3 4 Norte 11 Norte 0 -- -- 47
2018-02-08 19:00:00 8 6 Norte 20 Nordeste 0 -- -- 38
2018-02-08 18:00:00 9.8 9 Norte 26 Norte 0 -- -- 35
2018-02-08 17:00:00 10.2 14 Nordeste 33 Norte 0 -- -- 31
2018-02-08 16:00:00 10.4 15 Norte 37 Norte 0 -- -- 34
2018-02-08 15:00:00 10.1 17 Este 41 Este 0 -- -- 36
2018-02-08 14:00:00 9.6 17 Nordeste 44 Nordeste 0 -- -- 38
2018-02-08 13:00:00 8.3 17 Nordeste 33 Nordeste 0 -- -- 41
2018-02-08 12:00:00 7.5 15 Nordeste 32 Este 0 -- -- 44
2018-02-08 11:00:00 5.7 14 Nordeste 29 Nordeste 0 -- -- 51
2018-02-08 10:00:00 4 10 Nordeste 22 Norte 0 -- -- 59
2018-02-08 09:00:00 -0.9 3 Sudeste 11 Este 0 -- -- 76
2018-02-08 08:00:00 -0.1 3 Nordeste 14 Nordeste 0 -- -- 74
2018-02-08 07:00:00 0 9 Este 18 Nordeste 0 -- -- 76
2018-02-08 06:00:00 -0.6 9 Nordeste 16 Nordeste 0 -- -- 81
2018-02-08 05:00:00 -5.4 0 Calma 3 Sudoeste 0 -- -- 90
2018-02-08 04:00:00 -4.7 0 Calma 4 Este 0 -- -- 89
2018-02-08 03:00:00 -3.5 2 Este 5 Este 0 -- -- 88
2018-02-08 02:00:00 -3 2 Este 4 Este 0 -- -- 85
2018-02-08 01:00:00 -2.7 2 Este 4 Este 0 -- -- 82
2018-02-08 00:00:00 -1.6 2 Nordeste 4 Nordeste 0 -- -- 80
2018-02-07 23:00:00 -1.3 0 Calma 3 Sur 0 -- -- 78
2018-02-07 22:00:00 0.7 0 Calma 4 Este 0 -- -- 67
2018-02-07 21:00:00 3.3 3 Nordeste 11 Norte 0 -- -- 59
2018-02-07 20:00:00 6.2 6 Nordeste 16 Nordeste 0 -- -- 47
2018-02-07 19:00:00 8.4 9 Nordeste 24 Norte 0 -- -- 38
2018-02-07 18:00:00 9 10 Nordeste 27 Nordeste 0 -- -- 35
2018-02-07 17:00:00 10.4 16 Nordeste 30 Este 0 -- -- 35
2018-02-07 16:00:00 10.3 15 Nordeste 42 Este 0 -- -- 33
2018-02-07 15:00:00 10.1 20 Nordeste 40 Nordeste 0 -- -- 34
2018-02-07 14:00:00 9.9 16 Este 38 Este 0 -- -- 35
2018-02-07 13:00:00 8.2 18 Nordeste 33 Nordeste 0 -- -- 44
2018-02-07 12:00:00 6.9 19 Nordeste 37 Este 0 -- -- 47
2018-02-07 11:00:00 6.5 15 Este 29 Este 0 -- -- 50
2018-02-07 10:00:00 4.9 15 Este 24 Este 0 -- -- 56
2018-02-07 09:00:00 2.2 9 Este 19 Este 0 -- -- 67
2018-02-07 08:00:00 -1.6 3 Nordeste 13 Nordeste 0 -- -- 84
2018-02-07 07:00:00 -4.2 3 Sudeste 8 Sudeste 0 -- -- 92
2018-02-07 06:00:00 -4.7 0 Calma 5 Sur 0 -- -- 91
2018-02-07 05:00:00 -4 2 Nordeste 6 Sudeste 0 -- -- 91
2018-02-07 04:00:00 -3.8 0 Calma 5 Nordeste 0 -- -- 88
2018-02-07 03:00:00 -3.8 0 Calma 6 Este 0 -- -- 90
2018-02-07 02:00:00 -3.8 3 Este 8 Nordeste 0 -- -- 89
2018-02-07 01:00:00 -3 0 Calma 5 Nordeste 0 -- -- 84
2018-02-07 00:00:00 -1.3 2 Este 8 Sudeste 0 -- -- 78
2018-02-06 23:00:00 0.1 2 Este 4 Norte 0 -- -- 70
2018-02-06 22:00:00 3.2 0 Calma 10 Norte 0 -- -- 58
2018-02-06 21:00:00 5.6 7 Norte 19 Noroeste 0 -- -- 47
2018-02-06 20:00:00 6.7 8 Noroeste 27 Norte 0 -- -- 45
2018-02-06 19:00:00 8.4 9 Noroeste 24 Noroeste 0 -- -- 44
2018-02-06 18:00:00 9.7 13 Norte 32 Noroeste 0 -- -- 40
2018-02-06 17:00:00 10.2 14 Noroeste 31 Noroeste 0 -- -- 42
2018-02-06 16:00:00 10.2 13 Noroeste 31 Noroeste 0 -- -- 47
2018-02-06 15:00:00 9.9 12 Noroeste 24 Noroeste 0 -- -- 51
2018-02-06 14:00:00 9.1 15 Noroeste 26 Oeste 0 -- -- 51
2018-02-06 13:00:00 8.5 9 Norte 22 Norte 0 -- -- 55
2018-02-06 12:00:00 6.9 13 Noroeste 19 Noroeste 0 -- -- 60
2018-02-06 11:00:00 5.4 6 Norte 21 Nordeste 0 -- -- 63
2018-02-06 10:00:00 4 5 Norte 13 Nordeste 0 -- -- 70
2018-02-06 09:00:00 1.9 4 Nordeste 12 Nordeste 0 -- -- 79
2018-02-06 08:00:00 0.7 7 Oeste 14 Oeste 0 -- -- 84
2018-02-06 07:00:00 1.1 2 Este 12 Sudoeste 0 -- -- 80
2018-02-06 06:00:00 2 5 Oeste 13 Noroeste 0 -- -- 77
2018-02-06 05:00:00 2.2 4 Oeste 10 Oeste 0 -- -- 75
2018-02-06 04:00:00 2.3 7 Oeste 10 Oeste 0 -- -- 74
2018-02-06 03:00:00 2.4 3 Sudoeste 6 Sur 0 -- -- 73
2018-02-06 02:00:00 4.1 6 Noroeste 25 Norte 0 -- -- 66
2018-02-06 01:00:00 5 12 Noroeste 24 Norte 0 -- -- 64
2018-02-06 00:00:00 5.4 8 Norte 18 Norte 0 -- -- 63
2018-02-05 23:00:00 5.2 8 Noroeste 17 Noroeste 0 -- -- 66
2018-02-05 22:00:00 2.2 0 Calma 8 Noroeste 0 -- -- 81
2018-02-05 21:00:00 4 0 Calma 6 Noroeste 0 -- -- 75
2018-02-05 20:00:00 6.7 4 Noroeste 15 Norte 0 -- -- 64
2018-02-05 19:00:00 7.3 5 Noroeste 17 Oeste 0 -- -- 63
2018-02-05 18:00:00 7.8 10 Oeste 21 Oeste 0 -- -- 65
2018-02-05 17:00:00 8.6 15 Noroeste 26 Noroeste 0 -- -- 58
2018-02-05 16:00:00 10.4 9 Noroeste 24 Norte 0 -- -- 51
2018-02-05 15:00:00 9.3 16 Noroeste 28 Norte 0 -- -- 54
2018-02-05 14:00:00 9.5 11 Norte 27 Norte 0 -- -- 56
2018-02-05 13:00:00 8.5 15 Norte 25 Norte 0 -- -- 60
2018-02-05 12:00:00 7.4 13 Norte 26 Norte 0 -- -- 62
2018-02-05 11:00:00 6.9 10 Nordeste 23 Nordeste 0 -- -- 64
2018-02-05 10:00:00 1.4 0 Calma 5 Sudeste 0 -- -- 93
2018-02-05 09:00:00 -4 2 Sur 5 Este 0 -- -- 96
2018-02-05 08:00:00 -3.8 2 Este 6 Este 0 -- -- 96
2018-02-05 07:00:00 -3.6 0 Calma 4 Sudeste 0 -- -- 94
2018-02-05 06:00:00 -3.1 0 Calma 3 Nordeste 0 -- -- 94
2018-02-05 05:00:00 -2 0 Calma 4 Nordeste 0 -- -- 92
2018-02-05 04:00:00 -1.2 2 Sur 4 Este 0 -- -- 93
2018-02-05 03:00:00 -1.7 2 Este 5 Sudeste 0 -- -- 91
2018-02-05 02:00:00 -1.2 2 Sudeste 6 Sudeste 0 -- -- 88
2018-02-05 01:00:00 0.2 0 Calma 5 Oeste 0 -- -- 83
2018-02-05 00:00:00 1.8 2 Oeste 7 Nordeste 0 -- -- 75
2018-02-04 23:00:00 4.3 3 Norte 17 Norte 0 -- -- 63
2018-02-04 22:00:00 6.4 9 Norte 30 Norte 0 -- -- 56
2018-02-04 21:00:00 7 8 Noroeste 19 Noroeste 0 -- -- 57
2018-02-04 20:00:00 7.7 6 Noroeste 13 Noroeste 0 -- -- 54
2018-02-04 19:00:00 8 4 Noroeste 16 Oeste 0 -- -- 53
2018-02-04 18:00:00 9 9 Noroeste 28 Noroeste 0 -- -- 47
2018-02-04 17:00:00 10.3 17 Noroeste 27 Noroeste 0 -- -- 48
2018-02-04 16:00:00 9.2 12 Noroeste 28 Norte 0 -- -- 56
2018-02-04 15:00:00 9.4 18 Norte 29 Norte 0 -- -- 59
2018-02-04 14:00:00 9.2 8 Norte 23 Norte 0 -- -- 60
2018-02-04 13:00:00 8.7 12 Norte 26 Noroeste 0 -- -- 70
2018-02-04 12:00:00 7.8 11 Noroeste 21 Norte 0 -- -- 82
2018-02-04 11:00:00 6.9 10 Noroeste 21 Norte 0 -- -- 88
2018-02-04 10:00:00 6.5 11 Norte 29 Noroeste 0.4 -- -- 88
2018-02-04 09:00:00 6.1 3 Noroeste 14 Oeste 0 -- -- 92
2018-02-04 08:00:00 6.1 9 Sudoeste 20 Oeste 0 -- -- 91
2018-02-04 07:00:00 6.6 11 Oeste 21 Noroeste 0 -- -- 87
2018-02-04 06:00:00 7 12 Noroeste 29 Oeste 0 -- -- 85
2018-02-04 05:00:00 7.3 9 Oeste 32 Oeste 0 -- -- 87
2018-02-04 04:00:00 7.6 17 Oeste 33 Noroeste 0 -- -- 86
2018-02-04 03:00:00 7.6 15 Oeste 30 Oeste 0 -- -- 92
2018-02-04 02:00:00 6.9 2 Noroeste 8 Nordeste 0 -- -- 97
2018-02-04 01:00:00 6.5 5 Sudoeste 11 Oeste 0 -- -- 97
2018-02-04 00:00:00 4.9 2 Este 4 Sudeste 0 -- -- 87
2018-02-03 23:00:00 4.3 3 Este 4 Nordeste 0 -- -- 86
2018-02-03 22:00:00 3.8 0 Calma 6 Norte 0 -- -- 79
2018-02-03 21:00:00 5 3 Noroeste 9 Norte 0 -- -- 74
2018-02-03 20:00:00 6.6 6 Nordeste 14 Oeste 0 -- -- 66
2018-02-03 19:00:00 9.4 8 Oeste 22 Oeste 0 -- -- 51
2018-02-03 18:00:00 10.7 11 Oeste 22 Noroeste 0 -- -- 48
2018-02-03 17:00:00 11.6 9 Norte 21 Noroeste 0 -- -- 44
2018-02-03 16:00:00 11.5 13 Noroeste 24 Noroeste 0 -- -- 43
2018-02-03 15:00:00 11.1 12 Oeste 33 Noroeste 0 -- -- 46
2018-02-03 14:00:00 10.5 16 Norte 27 Norte 0 -- -- 41
2018-02-03 13:00:00 10.7 12 Noroeste 28 Noroeste 0 -- -- 46
2018-02-03 12:00:00 8.1 0 Calma 4 Norte 0 -- -- 57
2018-02-03 11:00:00 5 0 Calma 5 Este 0 -- -- 69
2018-02-03 10:00:00 0.1 0 Calma 3 Sur 0 -- -- 91
2018-02-03 09:00:00 -3.6 0 Calma 5 Este 0 -- -- 95
2018-02-03 08:00:00 -4.2 0 Calma 2 Sudeste 0 -- -- 93
2018-02-03 07:00:00 -3.5 0 Calma 5 Este 0 -- -- 92
2018-02-03 06:00:00 -2.9 4 Sudoeste 7 Sur 0 -- -- 88
2018-02-03 05:00:00 -1.3 3 Este 7 Este 0 -- -- 84
2018-02-03 04:00:00 -0.7 2 Este 8 Sudeste 0 -- -- 81
2018-02-03 03:00:00 -1.2 3 Sudoeste 6 Oeste 0 -- -- 84
2018-02-03 02:00:00 -0.6 2 Oeste 10 Sudeste 0 -- -- 80
2018-02-03 01:00:00 0.1 5 Nordeste 10 Este 0 -- -- 78
2018-02-03 00:00:00 1 5 Nordeste 9 Nordeste 0 -- -- 75
2018-02-02 23:00:00 3.4 3 Nordeste 7 Norte 0 -- -- 63
2018-02-02 22:00:00 5.8 4 Sur 20 Este 0 -- -- 53
2018-02-02 21:00:00 6.8 4 Nordeste 15 Este 0 -- -- 49
2018-02-02 20:00:00 8 8 Norte 16 Norte 0 -- -- 46
2018-02-02 19:00:00 9.1 10 Norte 27 Nordeste 0 -- -- 42
2018-02-02 18:00:00 10.6 14 Norte 31 Norte 0 -- -- 40
2018-02-02 17:00:00 10.8 23 Norte 36 Noroeste 0 -- -- 41
2018-02-02 16:00:00 11.2 14 Norte 36 Noroeste 0 -- -- 41
2018-02-02 15:00:00 10.5 17 Norte 35 Norte 0 -- -- 46
2018-02-02 14:00:00 9.7 15 Norte 40 Noroeste 0 -- -- 48
2018-02-02 13:00:00 8.9 19 Norte 33 Noroeste 0 -- -- 53
2018-02-02 12:00:00 7.3 21 Norte 35 Noroeste 0 -- -- 60
2018-02-02 11:00:00 6.6 14 Norte 30 Norte 0 -- -- 63
2018-02-02 10:00:00 5.5 12 Norte 24 Nordeste 0 -- -- 66
2018-02-02 09:00:00 3.8 6 Norte 25 Norte 0 -- -- 74
2018-02-02 08:00:00 3.8 13 Norte 27 Noroeste 0 -- -- 75
2018-02-02 07:00:00 3.1 10 Norte 19 Noroeste 0 -- -- 84
2018-02-02 06:00:00 3.1 6 Noroeste 17 Norte 0 -- -- 87
2018-02-02 05:00:00 3.8 10 Norte 29 Norte 0 -- -- 84
2018-02-02 04:00:00 4.7 16 Norte 28 Norte 0 -- -- 81
2018-02-02 03:00:00 5.2 14 Norte 32 Noroeste 0 -- -- 79
2018-02-02 02:00:00 5.8 18 Norte 40 Noroeste 0 -- -- 78
2018-02-02 01:00:00 6.5 22 Norte 37 Norte 0 -- -- 76
2018-02-02 00:00:00 6.9 24 Norte 42 Noroeste 0 -- -- 74
2018-02-01 23:00:00 7.5 19 Noroeste 33 Noroeste 0 -- -- 70
2018-02-01 22:00:00 8.4 23 Noroeste 51 Noroeste 0 -- -- 66
2018-02-01 21:00:00 9.2 17 Noroeste 35 Noroeste 0 -- -- 63
2018-02-01 20:00:00 10.3 13 Oeste 34 Oeste 0 -- -- 59
2018-02-01 19:00:00 11.2 18 Noroeste 48 Oeste 0 -- -- 58
2018-02-01 18:00:00 12.4 18 Noroeste 35 Oeste 0 -- -- 57
2018-02-01 17:00:00 12.7 13 Noroeste 24 Oeste 0 -- -- 66
2018-02-01 16:00:00 11.7 5 Noroeste 17 Noroeste 0 -- -- 73
2018-02-01 15:00:00 11.5 7 Noroeste 29 Norte 0 -- -- 77
2018-02-01 14:00:00 9.7 7 Noroeste 19 Noroeste 0 -- -- 80
2018-02-01 13:00:00 8 2 Noroeste 9 Oeste 0 -- -- 90
2018-02-01 12:00:00 6.6 5 Sudoeste 8 Sudoeste 0 -- -- 97
2018-02-01 11:00:00 5.2 0 Calma 3 Norte 0 -- -- 98
2018-02-01 10:00:00 3.6 0 Calma 5 Este 0 -- -- 99
2018-02-01 09:00:00 1.9 0 Calma 8 Noroeste 0 -- -- 99
2018-02-01 08:00:00 1.1 2 Sur 9 Sudeste 0 -- -- 99
2018-02-01 07:00:00 0 0 Calma 3 Sur 0 -- -- 97
2018-02-01 06:00:00 0.1 0 Calma 4 Sudeste 0 -- -- 95
2018-02-01 05:00:00 1.1 0 Calma 4 Este 0 -- -- 96
2018-02-01 04:00:00 1.3 0 Calma 3 Nordeste 0 -- -- 94
2018-02-01 03:00:00 2.2 2 Este 6 Sur 0 -- -- 94
2018-02-01 02:00:00 3.2 0 Calma 8 Sudeste 0 -- -- 90
2018-02-01 01:00:00 4.4 2 Este 8 Nordeste 0 -- -- 88
2018-02-01 00:00:00 6.1 0 Calma 11 Este 0 -- -- 83
2018-01-31 23:00:00 7.2 2 Sur 10 Este 0 -- -- 81
2018-01-31 22:00:00 9.7 2 Norte 7 Este 0 -- -- 71
2018-01-31 21:00:00 11.2 2 Nordeste 8 Norte 0 -- -- 63
2018-01-31 20:00:00 13.7 4 Nordeste 16 Norte 0 -- -- 52
2018-01-31 19:00:00 15 4 Este 18 Norte 0 -- -- 50
2018-01-31 18:00:00 16.6 8 Norte 17 Nordeste 0 -- -- 46
2018-01-31 17:00:00 17.6 6 Norte 17 Este 0 -- -- 47
2018-01-31 16:00:00 17.2 3 Norte 15 Norte 0 -- -- 49
2018-01-31 15:00:00 16.7 10 Nordeste 20 Nordeste 0 -- -- 49
2018-01-31 14:00:00 15.1 0 Calma 6 Noroeste 0 -- -- 58
2018-01-31 13:00:00 14 0 Calma 5 Sur 0 -- -- 59
2018-01-31 12:00:00 12.9 2 Sur 4 Sudoeste 0 -- -- 67
2018-01-31 11:00:00 10.6 2 Norte 5 Norte 0 -- -- 74
2018-01-31 10:00:00 9.3 2 Oeste 11 Oeste 0 -- -- 80
2018-01-31 09:00:00 8.4 4 Sur 10 Sudoeste 0 -- -- 82
2018-01-31 08:00:00 8.3 0 Calma 10 Sur 0 -- -- 79
2018-01-31 07:00:00 6.9 3 Sur 10 Sudeste 0 -- -- 86
2018-01-31 06:00:00 6.6 5 Sudeste 9 Sur 0 -- -- 88
2018-01-31 05:00:00 6.5 2 Este 12 Nordeste 0 -- -- 87
2018-01-31 04:00:00 6.9 5 Sur 11 Sur 0 -- -- 84
2018-01-31 03:00:00 6.7 5 Este 9 Este 0 -- -- 84
2018-01-31 02:00:00 6.9 3 Sudeste 10 Nordeste 0 -- -- 82
2018-01-31 01:00:00 6.7 6 Sur 9 Sur 0 -- -- 84
2018-01-31 00:00:00 6.6 3 Sudeste 9 Sudeste 0 -- -- 83
2018-01-30 23:00:00 7.4 5 Sudeste 9 Este 0 -- -- 77
2018-01-30 22:00:00 8.4 0 Calma 5 Norte 0 -- -- 72
2018-01-30 21:00:00 10.3 2 Este 11 Nordeste 0 -- -- 63
2018-01-30 20:00:00 12 5 Nordeste 10 Este 0 -- -- 58
2018-01-30 19:00:00 14.1 7 Este 14 Sudeste 0 -- -- 49
2018-01-30 18:00:00 16.2 10 Sudeste 19 Este 0 -- -- 45
2018-01-30 17:00:00 17.4 9 Este 23 Este 0 -- -- 40
2018-01-30 16:00:00 17.7 13 Este 27 Este 0 -- -- 37
2018-01-30 15:00:00 18.2 19 Este 30 Este 0 -- -- 36
2018-01-30 14:00:00 17.6 15 Este 29 Este 0 -- -- 39
2018-01-30 13:00:00 18.7 7 Sudeste 20 Este 0 -- -- 40
2018-01-30 12:00:00 15.3 3 Norte 23 Este 0 -- -- 53
2018-01-30 11:00:00 13.1 4 Oeste 12 Sudeste 0 -- -- 53
2018-01-30 10:00:00 10.8 4 Norte 11 Nordeste 0 -- -- 63
2018-01-30 09:00:00 9.8 7 Norte 13 Noroeste 0 -- -- 66
2018-01-30 08:00:00 9.1 6 Nordeste 12 Norte 0 -- -- 68
2018-01-30 07:00:00 8.5 5 Nordeste 13 Este 0 -- -- 70
2018-01-30 06:00:00 4.8 4 Este 12 Este 0 -- -- 89
2018-01-30 05:00:00 3.1 0 Calma 5 Sur 0 -- -- 91
2018-01-30 04:00:00 3.6 0 Calma 6 Sudoeste 0 -- -- 91
2018-01-30 03:00:00 4.9 0 Calma 5 Sur 0 -- -- 82
2018-01-30 02:00:00 7.1 0 Calma 7 Nordeste 0 -- -- 78
2018-01-30 01:00:00 9.5 3 Nordeste 12 Este 0 -- -- 68
2018-01-30 00:00:00 12.3 6 Este 23 Sudeste 0 -- -- 58
2018-01-29 23:00:00 13.7 13 Este 22 Este 0 -- -- 53
2018-01-29 22:00:00 13.1 11 Sudeste 22 Este 0 -- -- 56
2018-01-29 21:00:00 12.4 9 Sur 19 Sudeste 0 -- -- 60
2018-01-29 20:00:00 13.2 6 Sudeste 17 Este 0 -- -- 59
2018-01-29 19:00:00 15.5 7 Este 23 Este 0 -- -- 52
2018-01-29 18:00:00 17.4 15 Este 37 Este 0 -- -- 46
2018-01-29 17:00:00 18.6 20 Este 42 Nordeste 0 -- -- 41
2018-01-29 16:00:00 18.5 21 Este 37 Nordeste 0 -- -- 41
2018-01-29 15:00:00 18 19 Este 37 Este 0 -- -- 44
2018-01-29 14:00:00 17.5 19 Este 39 Este 0 -- -- 43
2018-01-29 13:00:00 16.8 18 Este 31 Este 0 -- -- 46
2018-01-29 12:00:00 15.2 14 Este 28 Sudeste 0 -- -- 50
2018-01-29 11:00:00 12.7 15 Sudeste 25 Este 0 -- -- 58
2018-01-29 10:00:00 10.6 10 Sudeste 29 Este 0 -- -- 63
2018-01-29 09:00:00 8.7 9 Sudeste 17 Este 0 -- -- 70
2018-01-29 08:00:00 9.9 12 Sudeste 27 Este 0 -- -- 65
2018-01-29 07:00:00 9.6 10 Sudeste 23 Sudeste 0 -- -- 66
2018-01-29 06:00:00 9.6 10 Sudeste 24 Este 0 -- -- 65
2018-01-29 05:00:00 9 13 Este 26 Este 0 -- -- 68
2018-01-29 04:00:00 9.1 11 Este 23 Este 0 -- -- 64
2018-01-29 03:00:00 8.3 8 Sudeste 19 Este 0 -- -- 59
2018-01-29 02:00:00 8.1 6 Sudeste 28 Este 0 -- -- 57
2018-01-29 01:00:00 8.9 9 Este 18 Este 0 -- -- 53
2018-01-29 00:00:00 5.3 4 Nordeste 11 Este 0 -- -- 69
2018-01-28 23:00:00 5.3 2 Este 14 Este 0 -- -- 69
2018-01-28 22:00:00 10.5 9 Este 23 Este 0 -- -- 50
2018-01-28 21:00:00 11.3 9 Este 26 Este 0 -- -- 49
2018-01-28 20:00:00 11.2 8 Este 18 Nordeste 0 -- -- 57
2018-01-28 19:00:00 12.3 7 Nordeste 28 Nordeste 0 -- -- 53
2018-01-28 18:00:00 13.4 19 Este 34 Este 0 -- -- 51
2018-01-28 17:00:00 13.4 21 Este 47 Nordeste 0 -- -- 50
2018-01-28 16:00:00 14 24 Este 55 Este 0 -- -- 51
2018-01-28 15:00:00 14 26 Este 59 Nordeste 0 -- -- 53
2018-01-28 14:00:00 12.9 28 Este 64 Este 0 -- -- 54
2018-01-28 13:00:00 12.9 29 Este 53 Este 0 -- -- 52
2018-01-28 12:00:00 11.7 23 Este 51 Este 0 -- -- 50
2018-01-28 11:00:00 10.3 32 Nordeste 64 Nordeste 0 -- -- 52
2018-01-28 10:00:00 8.4 33 Nordeste 57 Nordeste 0 -- -- 52
2018-01-28 09:00:00 6 8 Norte 22 Nordeste 0 -- -- 61
2018-01-28 08:00:00 5.6 7 Nordeste 23 Nordeste 0 -- -- 63
2018-01-28 07:00:00 3.4 2 Nordeste 12 Nordeste 0 -- -- 73
2018-01-28 06:00:00 5.8 10 Nordeste 28 Nordeste 0 -- -- 63
2018-01-28 05:00:00 6.4 8 Este 22 Nordeste 0 -- -- 61
2018-01-28 04:00:00 7.1 8 Este 26 Este 0 -- -- 58
2018-01-28 03:00:00 7.3 13 Este 23 Este 0 -- -- 58
2018-01-28 02:00:00 1.5 2 Sudoeste 8 Sudoeste 0 -- -- 81
2018-01-28 01:00:00 3.5 0 Calma 9 Noroeste 0 -- -- 75
2018-01-28 00:00:00 3.6 0 Calma 8 Norte 0 -- -- 77
2018-01-27 23:00:00 6.3 8 Norte 17 Nordeste 0 -- -- 66
2018-01-27 22:00:00 7.8 5 Nordeste 22 Este 0 -- -- 60
2018-01-27 21:00:00 6.6 3 Nordeste 14 Nordeste 0 -- -- 68
2018-01-27 20:00:00 6.2 4 Nordeste 10 Nordeste 0 -- -- 71
2018-01-27 19:00:00 10.4 5 Nordeste 19 Nordeste 0 -- -- 51
2018-01-27 18:00:00 11.8 13 Nordeste 28 Norte 0 -- -- 45
2018-01-27 17:00:00 12.7 14 Norte 27 Norte 0 -- -- 37
2018-01-27 16:00:00 12.9 19 Nordeste 36 Nordeste 0 -- -- 36
2018-01-27 15:00:00 12.9 9 Nordeste 32 Este 0 -- -- 44
2018-01-27 14:00:00 12.1 9 Norte 27 Este 0 -- -- 53
2018-01-27 13:00:00 10.6 13 Nordeste 23 Nordeste 0 -- -- 57
2018-01-27 12:00:00 9.4 9 Nordeste 23 Nordeste 0 -- -- 64
2018-01-27 11:00:00 5.6 0 Calma 4 Oeste 0 -- -- 88
2018-01-27 10:00:00 1 0 Calma 9 Este 0 -- -- 100
2018-01-27 09:00:00 -2.5 0 Calma 5 Este 0 -- -- 97
2018-01-27 08:00:00 -2 0 Calma 6 Norte 0 -- -- 98
2018-01-27 07:00:00 -1.6 0 Calma 5 Sudoeste 0 -- -- 97
2018-01-27 06:00:00 -1 0 Calma 6 Sudeste 0 -- -- 95
2018-01-27 05:00:00 0 0 Calma 9 Este 0 -- -- 93
2018-01-27 04:00:00 1.3 0 Calma 9 Sudeste 0 -- -- 89
2018-01-27 03:00:00 4.8 4 Oeste 17 Oeste 0 -- -- 82
2018-01-27 02:00:00 5.2 4 Oeste 15 Oeste 0 -- -- 81
2018-01-27 01:00:00 5.2 5 Sudoeste 30 Norte 0 -- -- 79
2018-01-27 00:00:00 7.3 9 Norte 24 Noroeste 0 -- -- 72
2018-01-26 23:00:00 7.8 11 Norte 27 Norte 0 -- -- 70
2018-01-26 22:00:00 8.1 13 Norte 23 Norte 0 -- -- 67
2018-01-26 21:00:00 8.6 8 Norte 16 Noroeste 0 -- -- 65
2018-01-26 20:00:00 9.8 8 Norte 20 Noroeste 0 -- -- 56
2018-01-26 19:00:00 10.6 8 Norte 16 Norte 0 -- -- 56
2018-01-26 18:00:00 11.4 6 Norte 33 Norte 0 -- -- 57
2018-01-26 17:00:00 11.7 13 Norte 37 Noroeste 0 -- -- 54
2018-01-26 16:00:00 12 17 Norte 34 Norte 0 -- -- 54
2018-01-26 15:00:00 11.4 18 Norte 37 Norte 0 -- -- 57
2018-01-26 14:00:00 10.7 26 Norte 41 Noroeste 0 -- -- 58
2018-01-26 13:00:00 9.1 18 Noroeste 39 Norte 0 -- -- 76
2018-01-26 12:00:00 7.4 22 Norte 40 Noroeste 0 -- -- 81
2018-01-26 11:00:00 6.1 8 Norte 25 Noroeste 0 -- -- 90
2018-01-26 10:00:00 3.9 4 Este 9 Nordeste 0 -- -- 98
2018-01-26 09:00:00 2 3 Sudeste 9 Sudeste 0 -- -- 95
2018-01-26 08:00:00 3.3 2 Noroeste 14 Norte 0 -- -- 94
2018-01-26 07:00:00 3.7 5 Noroeste 17 Noroeste 0 -- -- 89
2018-01-26 06:00:00 4.7 12 Noroeste 27 Noroeste 0 -- -- 89
2018-01-26 05:00:00 4.8 11 Noroeste 26 Noroeste 0 -- -- 88
2018-01-26 04:00:00 4.8 7 Noroeste 22 Noroeste 0 -- -- 87
2018-01-26 03:00:00 5.3 12 Noroeste 27 Noroeste 0 -- -- 86
2018-01-26 02:00:00 5.8 14 Noroeste 33 Noroeste 0 -- -- 85
2018-01-26 01:00:00 6.4 15 Noroeste 35 Noroeste 0 -- -- 85
2018-01-26 00:00:00 6.1 14 Noroeste 28 Noroeste 0 -- -- 90
2018-01-25 23:00:00 6.6 17 Noroeste 39 Norte 0 -- -- 87
2018-01-25 22:00:00 7.2 14 Noroeste 36 Noroeste 0 -- -- 83
2018-01-25 21:00:00 7.9 12 Noroeste 27 Oeste 0 -- -- 81
2018-01-25 20:00:00 9 19 Noroeste 45 Noroeste 0 -- -- 78
2018-01-25 19:00:00 9.7 9 Noroeste 31 Oeste 0.2 -- -- 88
2018-01-25 18:00:00 10.1 8 Oeste 15 Oeste 0 -- -- 96
2018-01-25 17:00:00 10.3 8 Oeste 22 Oeste 0.4 -- -- 97
2018-01-25 16:00:00 10.1 12 Oeste 20 Noroeste 0.6 -- -- 100
2018-01-25 15:00:00 9.7 9 Oeste 17 Oeste 1 -- -- 100
2018-01-25 14:00:00 9.6 3 Sur 11 Sudoeste 0.8 -- -- 99
2018-01-25 13:00:00 9.7 3 Este 5 Oeste 0.4 -- -- 100
2018-01-25 12:00:00 8.9 2 Nordeste 4 Este 0.2 -- -- 100
2018-01-25 11:00:00 7.8 0 Calma 6 Este 0 -- -- 100
2018-01-25 10:00:00 7 4 Este 6 Este 0 -- -- 100
2018-01-25 09:00:00 6.7 3 Este 5 Oeste 0 -- -- 100
2018-01-25 08:00:00 6.7 0 Calma 3 Sudeste 0 -- -- 100
2018-01-25 07:00:00 6.8 3 Oeste 8 Oeste 0 -- -- 100
2018-01-25 06:00:00 6.9 5 Oeste 9 Oeste 0 -- -- 100
2018-01-25 05:00:00 7 4 Noroeste 11 Oeste 0 -- -- 100
2018-01-25 04:00:00 7.4 4 Oeste 7 Oeste 0 -- -- 100
2018-01-25 03:00:00 7.6 3 Nordeste 6 Norte 0 -- -- 100
2018-01-25 02:00:00 8.1 2 Norte 6 Norte 0 -- -- 100
2018-01-25 01:00:00 8.3 0 Calma 4 Este 0 -- -- 100
2018-01-25 00:00:00 8.4 0 Calma 2 Este 0 -- -- 100
2018-01-24 23:00:00 8.1 2 Este 3 Noroeste 0 -- -- 100
2018-01-24 22:00:00 7.9 2 Noroeste 9 Noroeste 0 -- -- 98
2018-01-24 21:00:00 7.8 0 Calma 4 Nordeste 0 -- -- 92
2018-01-24 20:00:00 10.3 2 Oeste 8 Oeste 0 -- -- 89
2018-01-24 19:00:00 12.2 3 Oeste 14 Oeste 0 -- -- 84
2018-01-24 18:00:00 14.1 10 Oeste 20 Oeste 0 -- -- 78
2018-01-24 17:00:00 15 14 Oeste 20 Oeste 0 -- -- 76
2018-01-24 16:00:00 16.1 10 Oeste 17 Oeste 0 -- -- 74
2018-01-24 15:00:00 16.4 13 Oeste 18 Oeste 0 -- -- 72
2018-01-24 14:00:00 16.7 8 Oeste 13 Oeste 0 -- -- 72
2018-01-24 13:00:00 14.3 3 Noroeste 7 Noroeste 0 -- -- 80
2018-01-24 12:00:00 9.9 2 Noroeste 5 Noroeste 0 -- -- 97
2018-01-24 11:00:00 6 3 Noroeste 5 Noroeste 0 -- -- 100
2018-01-24 10:00:00 1.6 0 Calma 3 Norte 0 -- -- 100
2018-01-24 09:00:00 -0.5 0 Calma 3 Sudeste 0 -- -- 100
2018-01-24 08:00:00 -0.2 3 Este 4 Este 0 -- -- 100
2018-01-24 07:00:00 -0.4 0 Calma 4 Sudeste 0 -- -- 100
2018-01-24 06:00:00 0.4 3 Sudeste 5 Sudeste 0 -- -- 100
2018-01-24 05:00:00 0.6 2 Este 5 Este 0 -- -- 100
2018-01-24 04:00:00 0.7 2 Este 3 Este 0 -- -- 100
2018-01-24 03:00:00 2 0 Calma 4 Este 0.2 -- -- 100
2018-01-24 02:00:00 3.4 3 Sudeste 6 Este 0 -- -- 100
2018-01-24 01:00:00 4.5 3 Este 5 Nordeste 0 -- -- 100
2018-01-24 00:00:00 5 0 Calma 2 Noroeste 0 -- -- 100
2018-01-23 23:00:00 4.3 0 Calma 3 Este 0 -- -- 99
2018-01-23 22:00:00 3.2 0 Calma 3 Sudoeste 0 -- -- 96
2018-01-23 21:00:00 4.5 2 Sur 4 Sudeste 0 -- -- 96
2018-01-23 20:00:00 6.3 3 Noroeste 7 Noroeste 0 -- -- 94
2018-01-23 19:00:00 8.8 5 Noroeste 9 Noroeste 0 -- -- 89
2018-01-23 18:00:00 11.6 5 Oeste 18 Oeste 0 -- -- 79
2018-01-23 17:00:00 12.9 11 Oeste 18 Oeste 0 -- -- 76
2018-01-23 16:00:00 13.8 12 Sudoeste 19 Oeste 0 -- -- 73
2018-01-23 15:00:00 14.9 13 Oeste 18 Oeste 0 -- -- 73
2018-01-23 14:00:00 12.1 5 Noroeste 10 Oeste 0 -- -- 86
2018-01-23 13:00:00 8.2 6 Oeste 12 Oeste 0 -- -- 100
2018-01-23 12:00:00 5.8 0 Calma 5 Noroeste 0 -- -- 100
2018-01-23 11:00:00 3.4 2 Oeste 4 Oeste 0 -- -- 100
2018-01-23 10:00:00 2.1 0 Calma 3 Sudoeste 0 -- -- 100
2018-01-23 09:00:00 1.4 0 Calma 2 Este 0 -- -- 100
2018-01-23 08:00:00 0.7 0 Calma 3 Noroeste 0 -- -- 100
2018-01-23 07:00:00 0.1 0 Calma 4 Nordeste 0.2 -- -- 100
2018-01-23 06:00:00 0.6 0 Calma 4 Nordeste 0 -- -- 100
2018-01-23 05:00:00 1.5 0 Calma 8 Sudeste 0 -- -- 100
2018-01-23 04:00:00 2.7 3 Este 9 Nordeste 0 -- -- 99
2018-01-23 03:00:00 2.3 0 Calma 8 Este 0 -- -- 98
2018-01-23 02:00:00 2.4 3 Sudeste 9 Este 0 -- -- 100
2018-01-23 01:00:00 2.4 2 Sudeste 6 Nordeste 0 -- -- 99
2018-01-23 00:00:00 3.7 2 Nordeste 11 Nordeste 0 -- -- 98
2018-01-22 23:00:00 3.5 2 Sudeste 8 Nordeste 0 -- -- 98
2018-01-22 22:00:00 4 0 Calma 6 Sur 0 -- -- 96
2018-01-22 21:00:00 5.2 0 Calma 6 Nordeste 0 -- -- 94
2018-01-22 20:00:00 7.1 0 Calma 6 Sur 0 -- -- 91
2018-01-22 19:00:00 9.5 0 Calma 15 Norte 0 -- -- 86
2018-01-22 18:00:00 11.7 10 Oeste 18 Oeste 0 -- -- 82
2018-01-22 17:00:00 13.4 11 Sudoeste 19 Oeste 0 -- -- 79
2018-01-22 16:00:00 15.1 9 Oeste 16 Sudoeste 0 -- -- 76
2018-01-22 15:00:00 14.1 9 Oeste 15 Sur 0 -- -- 82
2018-01-22 14:00:00 11.6 5 Sudoeste 18 Sudoeste 0 -- -- 98
2018-01-22 13:00:00 9.4 6 Oeste 13 Oeste 0 -- -- 100
2018-01-22 12:00:00 8.6 3 Noroeste 8 Oeste 0 -- -- 100
2018-01-22 11:00:00 7.3 2 Sudeste 5 Sudeste 0 -- -- 100
2018-01-22 10:00:00 6.7 2 Este 9 Este 0 -- -- 100
2018-01-22 09:00:00 7.2 2 Este 6 Sudeste 0 -- -- 100
2018-01-22 08:00:00 7.4 0 Calma 3 Este 0 -- -- 100
2018-01-22 07:00:00 7.4 0 Calma 7 Sudeste 0 -- -- 100
2018-01-22 06:00:00 7.2 4 Este 5 Sudeste 0 -- -- 100
2018-01-22 05:00:00 6.5 0 Calma 4 Sudoeste 0 -- -- 100
2018-01-22 04:00:00 6 2 Sudoeste 8 Este 0 -- -- 100
2018-01-22 03:00:00 4.9 0 Calma 8 Sur 0 -- -- 100
2018-01-22 02:00:00 2.4 2 Este 4 Este 0 -- -- 98
2018-01-22 01:00:00 3.1 2 Este 3 Este 0 -- -- 98
2018-01-22 00:00:00 4.1 0 Calma 6 Sudeste 0 -- -- 98